Grand-Sault, Canada
Current Conditions -  °F | °C
As of 10:54 PM on Tuesday 21 Oct 2014 (Local Time) from KCAR Reporting Station
Clear Clear  
Wind Chill: 36°   Ceiling: Unl
Heat Index: 39°   Visibility: 10mi
Dew Point: 31°   Wind: 5mph
Humidity: 73%   Direction: 30°NNE
Pressure: 30.24"   Gusts: NA
Location:  47.05°N, 67.73°W
Report Text: KCAR 220154Z AUTO 03004KT 10SM CLR 04/M01 A3024 RMK AO2 SLP250 T00391006
Loading
Personal Weather Stations






























Interactive Weather Map
Tropical Storm Tracking
New forecast layout! Learn more

10-Day Weather Forecast

Advertisements
Track Severe Weather on mobile